sensor_id;sensor_type;location;lat;lon;timestamp;P1;durP1;ratioP1;P2;durP2;ratioP2
15913;SDS011;8055;51.930;8.840;2022-10-15T00:02:06;21.30;;;14.60;;
15913;SDS011;8055;51.930;8.840;2022-10-15T00:04:32;22.33;;;16.77;;
15913;SDS011;8055;51.930;8.840;2022-10-15T00:06:58;24.77;;;17.48;;
15913;SDS011;8055;51.930;8.840;2022-10-15T00:09:23;22.25;;;16.00;;
15913;SDS011;8055;51.930;8.840;2022-10-15T00:11:49;22.00;;;16.73;;
15913;SDS011;8055;51.930;8.840;2022-10-15T00:14:15;24.38;;;18.60;;
15913;SDS011;8055;51.930;8.840;2022-10-15T00:16:40;24.02;;;17.27;;
15913;SDS011;8055;51.930;8.840;2022-10-15T00:19:06;24.27;;;17.73;;
15913;SDS011;8055;51.930;8.840;2022-10-15T00:21:31;28.10;;;19.90;;
15913;SDS011;8055;51.930;8.840;2022-10-15T00:23:57;25.23;;;17.25;;
15913;SDS011;8055;51.930;8.840;2022-10-15T00:26:23;27.05;;;19.02;;
15913;SDS011;8055;51.930;8.840;2022-10-15T00:28:52;27.70;;;20.25;;
15913;SDS011;8055;51.930;8.840;2022-10-15T00:31:19;27.63;;;19.25;;
15913;SDS011;8055;51.930;8.840;2022-10-15T00:33:48;31.17;;;19.88;;
15913;SDS011;8055;51.930;8.840;2022-10-15T00:36:16;28.10;;;19.25;;
15913;SDS011;8055;51.930;8.840;2022-10-15T00:38:42;28.42;;;20.55;;
15913;SDS011;8055;51.930;8.840;2022-10-15T00:41:11;27.00;;;19.05;;
15913;SDS011;8055;51.930;8.840;2022-10-15T00:43:43;29.02;;;20.45;;
15913;SDS011;8055;51.930;8.840;2022-10-15T00:49:02;34.58;;;23.00;;
15913;SDS011;8055;51.930;8.840;2022-10-15T00:51:41;36.30;;;23.40;;
15913;SDS011;8055;51.930;8.840;2022-10-15T00:54:10;36.33;;;23.42;;
15913;SDS011;8055;51.930;8.840;2022-10-15T00:56:37;31.77;;;21.90;;
15913;SDS011;8055;51.930;8.840;2022-10-15T00:59:04;34.30;;;23.45;;
15913;SDS011;8055;51.930;8.840;2022-10-15T01:01:31;43.83;;;26.33;;
15913;SDS011;8055;51.930;8.840;2022-10-15T01:03:56;33.42;;;23.40;;
15913;SDS011;8055;51.930;8.840;2022-10-15T01:06:22;32.00;;;21.58;;
15913;SDS011;8055;51.930;8.840;2022-10-15T01:08:48;28.10;;;19.73;;
15913;SDS011;8055;51.930;8.840;2022-10-15T01:16:21;27.15;;;18.92;;
15913;SDS011;8055;51.930;8.840;2022-10-15T01:19:01;27.88;;;19.48;;
15913;SDS011;8055;51.930;8.840;2022-10-15T01:32:27;33.85;;;22.10;;
15913;SDS011;8055;51.930;8.840;2022-10-15T01:37:59;32.20;;;19.25;;
15913;SDS011;8055;51.930;8.840;2022-10-15T01:43:34;24.38;;;17.95;;
15913;SDS011;8055;51.930;8.840;2022-10-15T01:46:11;27.13;;;19.10;;
15913;SDS011;8055;51.930;8.840;2022-10-15T01:48:43;30.35;;;20.45;;
15913;SDS011;8055;51.930;8.840;2022-10-15T01:51:09;32.10;;;21.02;;
15913;SDS011;8055;51.930;8.840;2022-10-15T01:53:35;32.05;;;19.50;;
15913;SDS011;8055;51.930;8.840;2022-10-15T01:56:08;26.67;;;18.05;;
15913;SDS011;8055;51.930;8.840;2022-10-15T01:58:42;30.92;;;20.15;;
15913;SDS011;8055;51.930;8.840;2022-10-15T02:01:09;23.90;;;17.52;;
15913;SDS011;8055;51.930;8.840;2022-10-15T02:03:47;23.10;;;16.25;;
15913;SDS011;8055;51.930;8.840;2022-10-15T02:06:17;29.35;;;19.50;;
15913;SDS011;8055;51.930;8.840;2022-10-15T02:12:18;32.75;;;20.52;;
15913;SDS011;8055;51.930;8.840;2022-10-15T02:17:38;32.90;;;19.00;;
15913;SDS011;8055;51.930;8.840;2022-10-15T02:20:13;36.05;;;21.15;;
15913;SDS011;8055;51.930;8.840;2022-10-15T02:22:47;32.28;;;20.90;;
15913;SDS011;8055;51.930;8.840;2022-10-15T02:25:20;34.70;;;21.38;;
15913;SDS011;8055;51.930;8.840;2022-10-15T02:27:48;29.63;;;20.23;;
15913;SDS011;8055;51.930;8.840;2022-10-15T02:30:16;29.20;;;19.95;;
15913;SDS011;8055;51.930;8.840;2022-10-15T02:32:44;34.05;;;21.95;;
15913;SDS011;8055;51.930;8.840;2022-10-15T02:35:13;27.75;;;19.20;;
15913;SDS011;8055;51.930;8.840;2022-10-15T02:37:39;28.92;;;17.80;;
15913;SDS011;8055;51.930;8.840;2022-10-15T02:40:08;27.02;;;18.40;;
15913;SDS011;8055;51.930;8.840;2022-10-15T02:42:34;28.67;;;19.13;;
15913;SDS011;8055;51.930;8.840;2022-10-15T02:44:59;30.15;;;17.55;;
15913;SDS011;8055;51.930;8.840;2022-10-15T02:47:25;26.10;;;17.80;;
15913;SDS011;8055;51.930;8.840;2022-10-15T02:49:50;36.95;;;20.75;;
15913;SDS011;8055;51.930;8.840;2022-10-15T02:52:15;35.80;;;20.73;;
15913;SDS011;8055;51.930;8.840;2022-10-15T02:54:41;28.42;;;17.77;;
15913;SDS011;8055;51.930;8.840;2022-10-15T02:57:06;27.83;;;19.02;;
15913;SDS011;8055;51.930;8.840;2022-10-15T02:59:32;28.75;;;18.23;;
15913;SDS011;8055;51.930;8.840;2022-10-15T03:01:57;28.27;;;18.50;;
15913;SDS011;8055;51.930;8.840;2022-10-15T03:04:22;29.38;;;19.33;;
15913;SDS011;8055;51.930;8.840;2022-10-15T03:06:48;26.83;;;17.83;;
15913;SDS011;8055;51.930;8.840;2022-10-15T03:09:13;32.33;;;19.13;;
15913;SDS011;8055;51.930;8.840;2022-10-15T03:11:38;27.90;;;17.60;;
15913;SDS011;8055;51.930;8.840;2022-10-15T03:14:04;29.00;;;18.98;;
15913;SDS011;8055;51.930;8.840;2022-10-15T03:16:29;32.33;;;18.88;;
15913;SDS011;8055;51.930;8.840;2022-10-15T03:18:55;32.15;;;19.98;;
15913;SDS011;8055;51.930;8.840;2022-10-15T03:21:20;27.02;;;16.77;;
15913;SDS011;8055;51.930;8.840;2022-10-15T03:23:45;31.73;;;18.10;;
15913;SDS011;8055;51.930;8.840;2022-10-15T03:26:11;33.63;;;20.48;;
15913;SDS011;8055;51.930;8.840;2022-10-15T03:28:36;33.78;;;19.95;;
15913;SDS011;8055;51.930;8.840;2022-10-15T03:31:02;28.20;;;16.92;;
15913;SDS011;8055;51.930;8.840;2022-10-15T03:33:27;30.40;;;18.40;;
15913;SDS011;8055;51.930;8.840;2022-10-15T03:35:53;30.02;;;18.40;;
15913;SDS011;8055;51.930;8.840;2022-10-15T03:38:18;30.67;;;18.58;;
15913;SDS011;8055;51.930;8.840;2022-10-15T03:40:44;29.40;;;18.92;;
15913;SDS011;8055;51.930;8.840;2022-10-15T03:43:10;30.65;;;19.98;;
15913;SDS011;8055;51.930;8.840;2022-10-15T03:45:35;31.85;;;18.98;;
15913;SDS011;8055;51.930;8.840;2022-10-15T03:48:01;39.92;;;20.00;;
15913;SDS011;8055;51.930;8.840;2022-10-15T03:50:26;29.25;;;19.42;;
15913;SDS011;8055;51.930;8.840;2022-10-15T03:52:51;31.40;;;19.35;;
15913;SDS011;8055;51.930;8.840;2022-10-15T03:55:17;31.10;;;19.45;;
15913;SDS011;8055;51.930;8.840;2022-10-15T03:57:42;34.28;;;20.65;;
15913;SDS011;8055;51.930;8.840;2022-10-15T04:00:08;29.95;;;18.80;;
15913;SDS011;8055;51.930;8.840;2022-10-15T04:02:34;31.00;;;18.40;;
15913;SDS011;8055;51.930;8.840;2022-10-15T04:04:59;30.90;;;19.85;;
15913;SDS011;8055;51.930;8.840;2022-10-15T04:07:24;37.33;;;21.63;;
15913;SDS011;8055;51.930;8.840;2022-10-15T04:09:50;33.42;;;20.02;;
15913;SDS011;8055;51.930;8.840;2022-10-15T04:12:16;32.70;;;20.27;;
15913;SDS011;8055;51.930;8.840;2022-10-15T04:14:42;31.17;;;18.40;;
15913;SDS011;8055;51.930;8.840;2022-10-15T04:17:07;38.17;;;20.00;;
15913;SDS011;8055;51.930;8.840;2022-10-15T04:19:33;30.30;;;17.65;;
15913;SDS011;8055;51.930;8.840;2022-10-15T04:21:58;32.92;;;20.25;;
15913;SDS011;8055;51.930;8.840;2022-10-15T04:24:24;34.35;;;19.30;;
15913;SDS011;8055;51.930;8.840;2022-10-15T04:26:49;33.95;;;19.48;;
15913;SDS011;8055;51.930;8.840;2022-10-15T04:29:15;34.75;;;20.42;;
15913;SDS011;8055;51.930;8.840;2022-10-15T04:31:41;30.70;;;18.50;;
15913;SDS011;8055;51.930;8.840;2022-10-15T04:34:06;34.35;;;18.90;;
15913;SDS011;8055;51.930;8.840;2022-10-15T04:36:32;34.28;;;19.27;;
15913;SDS011;8055;51.930;8.840;2022-10-15T04:38:58;35.17;;;20.48;;
15913;SDS011;8055;51.930;8.840;2022-10-15T04:41:24;29.77;;;18.42;;
15913;SDS011;8055;51.930;8.840;2022-10-15T04:43:49;35.63;;;20.83;;
15913;SDS011;8055;51.930;8.840;2022-10-15T04:46:15;31.98;;;19.08;;
15913;SDS011;8055;51.930;8.840;2022-10-15T04:48:40;39.30;;;21.45;;
15913;SDS011;8055;51.930;8.840;2022-10-15T04:51:07;37.53;;;21.88;;
15913;SDS011;8055;51.930;8.840;2022-10-15T04:53:35;43.75;;;24.88;;
15913;SDS011;8055;51.930;8.840;2022-10-15T04:56:01;46.83;;;25.35;;
15913;SDS011;8055;51.930;8.840;2022-10-15T04:58:29;43.95;;;25.48;;
15913;SDS011;8055;51.930;8.840;2022-10-15T05:00:57;44.65;;;25.92;;
15913;SDS011;8055;51.930;8.840;2022-10-15T05:03:27;39.90;;;23.85;;
15913;SDS011;8055;51.930;8.840;2022-10-15T05:05:58;41.97;;;22.98;;
15913;SDS011;8055;51.930;8.840;2022-10-15T05:08:31;40.25;;;23.98;;
15913;SDS011;8055;51.930;8.840;2022-10-15T05:11:02;34.67;;;21.42;;
15913;SDS011;8055;51.930;8.840;2022-10-15T05:13:29;42.08;;;24.05;;
15913;SDS011;8055;51.930;8.840;2022-10-15T05:15:56;37.50;;;22.67;;
15913;SDS011;8055;51.930;8.840;2022-10-15T05:18:21;42.97;;;25.27;;
15913;SDS011;8055;51.930;8.840;2022-10-15T05:20:47;52.10;;;30.58;;
15913;SDS011;8055;51.930;8.840;2022-10-15T05:23:12;56.42;;;34.03;;
15913;SDS011;8055;51.930;8.840;2022-10-15T05:25:38;57.20;;;33.05;;
15913;SDS011;8055;51.930;8.840;2022-10-15T05:28:04;53.70;;;31.95;;
15913;SDS011;8055;51.930;8.840;2022-10-15T05:30:29;57.60;;;34.40;;
15913;SDS011;8055;51.930;8.840;2022-10-15T05:32:55;62.22;;;33.45;;
15913;SDS011;8055;51.930;8.840;2022-10-15T05:35:20;58.30;;;33.05;;
15913;SDS011;8055;51.930;8.840;2022-10-15T05:37:47;50.47;;;30.17;;
15913;SDS011;8055;51.930;8.840;2022-10-15T05:40:13;54.95;;;30.85;;
15913;SDS011;8055;51.930;8.840;2022-10-15T05:42:39;52.38;;;30.30;;
15913;SDS011;8055;51.930;8.840;2022-10-15T05:45:04;49.38;;;28.52;;
15913;SDS011;8055;51.930;8.840;2022-10-15T05:47:30;54.60;;;30.60;;
15913;SDS011;8055;51.930;8.840;2022-10-15T05:49:55;56.10;;;30.88;;
15913;SDS011;8055;51.930;8.840;2022-10-15T05:52:21;45.17;;;27.67;;
15913;SDS011;8055;51.930;8.840;2022-10-15T05:54:46;55.05;;;30.02;;
15913;SDS011;8055;51.930;8.840;2022-10-15T05:57:12;48.60;;;28.17;;
15913;SDS011;8055;51.930;8.840;2022-10-15T05:59:37;45.60;;;25.95;;
15913;SDS011;8055;51.930;8.840;2022-10-15T06:02:03;40.38;;;25.20;;
15913;SDS011;8055;51.930;8.840;2022-10-15T06:04:28;48.08;;;27.30;;
15913;SDS011;8055;51.930;8.840;2022-10-15T06:06:53;45.22;;;25.23;;
15913;SDS011;8055;51.930;8.840;2022-10-15T06:09:19;38.05;;;22.95;;
15913;SDS011;8055;51.930;8.840;2022-10-15T06:11:44;40.22;;;25.33;;
15913;SDS011;8055;51.930;8.840;2022-10-15T06:14:09;49.17;;;28.45;;
15913;SDS011;8055;51.930;8.840;2022-10-15T06:16:35;43.97;;;25.23;;
15913;SDS011;8055;51.930;8.840;2022-10-15T06:19:01;42.45;;;25.67;;
15913;SDS011;8055;51.930;8.840;2022-10-15T06:21:27;43.63;;;25.08;;
15913;SDS011;8055;51.930;8.840;2022-10-15T06:23:52;42.42;;;26.00;;
15913;SDS011;8055;51.930;8.840;2022-10-15T06:26:18;49.40;;;26.98;;
15913;SDS011;8055;51.930;8.840;2022-10-15T06:28:43;39.92;;;24.27;;
15913;SDS011;8055;51.930;8.840;2022-10-15T06:31:09;46.40;;;24.75;;
15913;SDS011;8055;51.930;8.840;2022-10-15T06:33:34;39.65;;;23.42;;
15913;SDS011;8055;51.930;8.840;2022-10-15T06:36:01;48.42;;;27.83;;
15913;SDS011;8055;51.930;8.840;2022-10-15T06:38:31;45.00;;;25.23;;
15913;SDS011;8055;51.930;8.840;2022-10-15T06:40:56;45.13;;;26.00;;
15913;SDS011;8055;51.930;8.840;2022-10-15T06:43:22;41.88;;;24.77;;
15913;SDS011;8055;51.930;8.840;2022-10-15T06:45:47;44.60;;;27.90;;
15913;SDS011;8055;51.930;8.840;2022-10-15T06:48:13;53.17;;;30.27;;
15913;SDS011;8055;51.930;8.840;2022-10-15T06:50:38;53.75;;;31.10;;
15913;SDS011;8055;51.930;8.840;2022-10-15T06:53:04;52.08;;;30.02;;
15913;SDS011;8055;51.930;8.840;2022-10-15T06:55:29;60.38;;;32.50;;
15913;SDS011;8055;51.930;8.840;2022-10-15T06:57:55;51.30;;;30.33;;
15913;SDS011;8055;51.930;8.840;2022-10-15T07:00:21;55.50;;;31.83;;
15913;SDS011;8055;51.930;8.840;2022-10-15T07:02:48;57.58;;;33.10;;
15913;SDS011;8055;51.930;8.840;2022-10-15T07:05:14;58.10;;;34.25;;
15913;SDS011;8055;51.930;8.840;2022-10-15T07:07:39;56.47;;;32.28;;
15913;SDS011;8055;51.930;8.840;2022-10-15T07:10:05;61.72;;;34.67;;
15913;SDS011;8055;51.930;8.840;2022-10-15T07:12:30;55.50;;;33.13;;
15913;SDS011;8055;51.930;8.840;2022-10-15T07:14:55;59.53;;;34.05;;
15913;SDS011;8055;51.930;8.840;2022-10-15T07:17:21;63.17;;;36.65;;
15913;SDS011;8055;51.930;8.840;2022-10-15T07:19:46;64.57;;;35.88;;
15913;SDS011;8055;51.930;8.840;2022-10-15T07:22:12;58.75;;;35.10;;
15913;SDS011;8055;51.930;8.840;2022-10-15T07:24:37;56.35;;;34.35;;
15913;SDS011;8055;51.930;8.840;2022-10-15T07:27:02;58.60;;;34.45;;
15913;SDS011;8055;51.930;8.840;2022-10-15T07:29:28;57.55;;;34.83;;
15913;SDS011;8055;51.930;8.840;2022-10-15T07:31:54;56.30;;;33.42;;
15913;SDS011;8055;51.930;8.840;2022-10-15T07:34:19;62.08;;;34.33;;
15913;SDS011;8055;51.930;8.840;2022-10-15T07:36:46;58.47;;;34.40;;
15913;SDS011;8055;51.930;8.840;2022-10-15T07:39:12;53.72;;;33.38;;
15913;SDS011;8055;51.930;8.840;2022-10-15T07:41:37;68.20;;;36.67;;
15913;SDS011;8055;51.930;8.840;2022-10-15T07:44:03;57.83;;;35.90;;
15913;SDS011;8055;51.930;8.840;2022-10-15T07:46:28;62.15;;;37.58;;
15913;SDS011;8055;51.930;8.840;2022-10-15T07:48:53;60.30;;;37.13;;
15913;SDS011;8055;51.930;8.840;2022-10-15T07:51:19;62.03;;;37.08;;
15913;SDS011;8055;51.930;8.840;2022-10-15T07:53:44;58.28;;;36.47;;
15913;SDS011;8055;51.930;8.840;2022-10-15T07:56:11;61.90;;;37.83;;
15913;SDS011;8055;51.930;8.840;2022-10-15T07:58:39;57.90;;;36.30;;
15913;SDS011;8055;51.930;8.840;2022-10-15T08:01:05;57.83;;;36.00;;
15913;SDS011;8055;51.930;8.840;2022-10-15T08:03:32;54.75;;;35.00;;
15913;SDS011;8055;51.930;8.840;2022-10-15T08:06:01;51.55;;;34.10;;
15913;SDS011;8055;51.930;8.840;2022-10-15T08:08:28;55.30;;;32.75;;
15913;SDS011;8055;51.930;8.840;2022-10-15T08:10:53;54.50;;;33.85;;
15913;SDS011;8055;51.930;8.840;2022-10-15T08:13:19;50.38;;;33.03;;
15913;SDS011;8055;51.930;8.840;2022-10-15T08:15:44;49.85;;;31.67;;
15913;SDS011;8055;51.930;8.840;2022-10-15T08:18:10;48.90;;;30.50;;
15913;SDS011;8055;51.930;8.840;2022-10-15T08:20:36;50.33;;;31.73;;
15913;SDS011;8055;51.930;8.840;2022-10-15T08:23:02;45.75;;;29.77;;
15913;SDS011;8055;51.930;8.840;2022-10-15T08:25:28;48.05;;;29.95;;
15913;SDS011;8055;51.930;8.840;2022-10-15T08:27:53;43.67;;;28.65;;
15913;SDS011;8055;51.930;8.840;2022-10-15T08:30:19;40.38;;;26.13;;
15913;SDS011;8055;51.930;8.840;2022-10-15T08:32:44;36.92;;;25.30;;
15913;SDS011;8055;51.930;8.840;2022-10-15T08:35:10;40.70;;;26.50;;
15913;SDS011;8055;51.930;8.840;2022-10-15T08:37:35;36.08;;;25.15;;
15913;SDS011;8055;51.930;8.840;2022-10-15T08:40:02;37.65;;;25.27;;
15913;SDS011;8055;51.930;8.840;2022-10-15T08:42:34;36.30;;;24.55;;
15913;SDS011;8055;51.930;8.840;2022-10-15T08:45:03;34.00;;;23.02;;
15913;SDS011;8055;51.930;8.840;2022-10-15T08:47:39;32.15;;;23.25;;
15913;SDS011;8055;51.930;8.840;2022-10-15T08:55:47;33.35;;;21.50;;
15913;SDS011;8055;51.930;8.840;2022-10-15T09:06:47;27.25;;;20.00;;
15913;SDS011;8055;51.930;8.840;2022-10-15T09:09:31;22.88;;;17.52;;
15913;SDS011;8055;51.930;8.840;2022-10-15T09:12:28;23.80;;;16.70;;
15913;SDS011;8055;51.930;8.840;2022-10-15T09:15:09;24.40;;;17.63;;
15913;SDS011;8055;51.930;8.840;2022-10-15T09:17:38;21.20;;;16.52;;
15913;SDS011;8055;51.930;8.840;2022-10-15T09:20:05;18.92;;;14.10;;
15913;SDS011;8055;51.930;8.840;2022-10-15T09:22:38;18.52;;;14.07;;
15913;SDS011;8055;51.930;8.840;2022-10-15T09:25:09;16.55;;;12.43;;
15913;SDS011;8055;51.930;8.840;2022-10-15T09:27:39;16.63;;;12.98;;
15913;SDS011;8055;51.930;8.840;2022-10-15T09:30:07;20.80;;;13.75;;
15913;SDS011;8055;51.930;8.840;2022-10-15T09:35:20;21.55;;;14.73;;
15913;SDS011;8055;51.930;8.840;2022-10-15T09:37:52;19.90;;;15.23;;
15913;SDS011;8055;51.930;8.840;2022-10-15T09:40:45;19.58;;;14.93;;
15913;SDS011;8055;51.930;8.840;2022-10-15T09:43:25;18.25;;;14.75;;
15913;SDS011;8055;51.930;8.840;2022-10-15T09:45:58;18.63;;;14.27;;
15913;SDS011;8055;51.930;8.840;2022-10-15T09:48:24;19.23;;;13.93;;
15913;SDS011;8055;51.930;8.840;2022-10-15T09:56:46;15.80;;;11.80;;
15913;SDS011;8055;51.930;8.840;2022-10-15T09:59:16;18.83;;;14.00;;
15913;SDS011;8055;51.930;8.840;2022-10-15T10:02:15;16.67;;;13.48;;
15913;SDS011;8055;51.930;8.840;2022-10-15T10:04:49;14.32;;;11.98;;
15913;SDS011;8055;51.930;8.840;2022-10-15T10:12:51;12.82;;;11.13;;
15913;SDS011;8055;51.930;8.840;2022-10-15T10:15:25;14.35;;;11.05;;
15913;SDS011;8055;51.930;8.840;2022-10-15T10:17:58;13.25;;;10.93;;
15913;SDS011;8055;51.930;8.840;2022-10-15T10:20:28;14.15;;;11.55;;
15913;SDS011;8055;51.930;8.840;2022-10-15T10:22:55;12.90;;;10.52;;
15913;SDS011;8055;51.930;8.840;2022-10-15T10:27:54;13.10;;;10.18;;
15913;SDS011;8055;51.930;8.840;2022-10-15T10:33:25;15.57;;;11.35;;
15913;SDS011;8055;51.930;8.840;2022-10-15T10:35:53;11.57;;;9.80;;
15913;SDS011;8055;51.930;8.840;2022-10-15T10:38:20;14.20;;;10.65;;
15913;SDS011;8055;51.930;8.840;2022-10-15T10:40:56;12.50;;;9.90;;
15913;SDS011;8055;51.930;8.840;2022-10-15T10:43:29;12.90;;;9.88;;
15913;SDS011;8055;51.930;8.840;2022-10-15T10:46:00;14.90;;;10.43;;
15913;SDS011;8055;51.930;8.840;2022-10-15T10:48:50;10.85;;;9.27;;
15913;SDS011;8055;51.930;8.840;2022-10-15T10:51:17;11.32;;;8.73;;
15913;SDS011;8055;51.930;8.840;2022-10-15T10:53:45;10.05;;;8.23;;
15913;SDS011;8055;51.930;8.840;2022-10-15T10:56:15;10.18;;;8.27;;
15913;SDS011;8055;51.930;8.840;2022-10-15T10:58:44;11.13;;;8.60;;
15913;SDS011;8055;51.930;8.840;2022-10-15T11:01:12;13.77;;;8.80;;
15913;SDS011;8055;51.930;8.840;2022-10-15T11:03:40;10.32;;;8.50;;
15913;SDS011;8055;51.930;8.840;2022-10-15T11:14:18;11.95;;;8.32;;
15913;SDS011;8055;51.930;8.840;2022-10-15T11:22:29;10.27;;;8.15;;
15913;SDS011;8055;51.930;8.840;2022-10-15T11:25:07;10.45;;;8.50;;
15913;SDS011;8055;51.930;8.840;2022-10-15T11:31:19;10.23;;;8.40;;
15913;SDS011;8055;51.930;8.840;2022-10-15T11:34:28;9.10;;;7.85;;
15913;SDS011;8055;51.930;8.840;2022-10-15T11:37:16;13.02;;;8.15;;
15913;SDS011;8055;51.930;8.840;2022-10-15T11:47:43;6.22;;;5.60;;
15913;SDS011;8055;51.930;8.840;2022-10-15T11:58:01;4.18;;;3.78;;
15913;SDS011;8055;51.930;8.840;2022-10-15T12:00:39;6.53;;;3.72;;
15913;SDS011;8055;51.930;8.840;2022-10-15T12:03:25;6.60;;;3.22;;
15913;SDS011;8055;51.930;8.840;2022-10-15T12:06:04;4.22;;;2.90;;
15913;SDS011;8055;51.930;8.840;2022-10-15T12:08:33;2.85;;;2.45;;
15913;SDS011;8055;51.930;8.840;2022-10-15T12:11:23;3.47;;;3.17;;
15913;SDS011;8055;51.930;8.840;2022-10-15T12:13:54;3.38;;;2.72;;
15913;SDS011;8055;51.930;8.840;2022-10-15T12:29:47;2.20;;;1.80;;
15913;SDS011;8055;51.930;8.840;2022-10-15T12:32:22;1.95;;;1.30;;
15913;SDS011;8055;51.930;8.840;2022-10-15T12:34:55;2.67;;;1.33;;
15913;SDS011;8055;51.930;8.840;2022-10-15T12:37:30;1.65;;;1.45;;
15913;SDS011;8055;51.930;8.840;2022-10-15T12:40:05;1.55;;;1.27;;
15913;SDS011;8055;51.930;8.840;2022-10-15T12:42:49;2.28;;;1.40;;
15913;SDS011;8055;51.930;8.840;2022-10-15T12:45:21;3.50;;;1.70;;
15913;SDS011;8055;51.930;8.840;2022-10-15T12:47:50;3.25;;;1.55;;
15913;SDS011;8055;51.930;8.840;2022-10-15T12:50:23;3.05;;;1.17;;
15913;SDS011;8055;51.930;8.840;2022-10-15T12:52:52;1.20;;;1.10;;
15913;SDS011;8055;51.930;8.840;2022-10-15T13:03:42;1.98;;;1.70;;
15913;SDS011;8055;51.930;8.840;2022-10-15T13:14:10;2.03;;;1.45;;
15913;SDS011;8055;51.930;8.840;2022-10-15T13:16:43;2.40;;;1.40;;
15913;SDS011;8055;51.930;8.840;2022-10-15T13:19:16;1.13;;;1.02;;
15913;SDS011;8055;51.930;8.840;2022-10-15T13:24:16;2.22;;;1.42;;
15913;SDS011;8055;51.930;8.840;2022-10-15T13:26:43;1.23;;;1.13;;
15913;SDS011;8055;51.930;8.840;2022-10-15T13:29:22;2.08;;;1.40;;
15913;SDS011;8055;51.930;8.840;2022-10-15T13:31:50;2.42;;;1.40;;
15913;SDS011;8055;51.930;8.840;2022-10-15T13:34:31;2.28;;;1.30;;
15913;SDS011;8055;51.930;8.840;2022-10-15T13:37:00;1.55;;;1.45;;
15913;SDS011;8055;51.930;8.840;2022-10-15T13:39:31;2.55;;;1.40;;
15913;SDS011;8055;51.930;8.840;2022-10-15T13:42:07;2.40;;;1.55;;
15913;SDS011;8055;51.930;8.840;2022-10-15T13:44:40;1.80;;;1.60;;
15913;SDS011;8055;51.930;8.840;2022-10-15T13:49:50;4.75;;;1.98;;
15913;SDS011;8055;51.930;8.840;2022-10-15T13:52:16;2.05;;;1.85;;
15913;SDS011;8055;51.930;8.840;2022-10-15T13:54:43;3.15;;;1.88;;
15913;SDS011;8055;51.930;8.840;2022-10-15T13:57:09;1.70;;;1.60;;
15913;SDS011;8055;51.930;8.840;2022-10-15T13:59:40;3.58;;;1.42;;
15913;SDS011;8055;51.930;8.840;2022-10-15T14:02:09;3.35;;;1.90;;
15913;SDS011;8055;51.930;8.840;2022-10-15T14:04:36;3.63;;;2.28;;
15913;SDS011;8055;51.930;8.840;2022-10-15T14:07:19;3.10;;;2.20;;
15913;SDS011;8055;51.930;8.840;2022-10-15T14:09:46;5.15;;;2.40;;
15913;SDS011;8055;51.930;8.840;2022-10-15T14:12:12;5.97;;;2.05;;
15913;SDS011;8055;51.930;8.840;2022-10-15T14:14:39;1.90;;;1.70;;
15913;SDS011;8055;51.930;8.840;2022-10-15T14:17:09;3.15;;;1.40;;
15913;SDS011;8055;51.930;8.840;2022-10-15T14:19:44;1.90;;;1.40;;
15913;SDS011;8055;51.930;8.840;2022-10-15T14:22:19;2.03;;;1.50;;
15913;SDS011;8055;51.930;8.840;2022-10-15T14:24:50;1.83;;;1.60;;
15913;SDS011;8055;51.930;8.840;2022-10-15T14:27:24;1.48;;;1.38;;
15913;SDS011;8055;51.930;8.840;2022-10-15T14:29:52;2.03;;;1.40;;
15913;SDS011;8055;51.930;8.840;2022-10-15T14:34:50;4.90;;;1.67;;
15913;SDS011;8055;51.930;8.840;2022-10-15T14:42:32;1.30;;;1.20;;
15913;SDS011;8055;51.930;8.840;2022-10-15T14:47:45;1.88;;;1.08;;
15913;SDS011;8055;51.930;8.840;2022-10-15T14:50:13;2.35;;;1.30;;
15913;SDS011;8055;51.930;8.840;2022-10-15T14:52:42;1.48;;;1.33;;
15913;SDS011;8055;51.930;8.840;2022-10-15T14:55:15;1.73;;;1.45;;
15913;SDS011;8055;51.930;8.840;2022-10-15T14:57:49;3.15;;;1.50;;
15913;SDS011;8055;51.930;8.840;2022-10-15T15:00:27;1.75;;;1.00;;
15913;SDS011;8055;51.930;8.840;2022-10-15T15:02:57;1.93;;;0.87;;
15913;SDS011;8055;51.930;8.840;2022-10-15T15:05:25;2.88;;;0.80;;
15913;SDS011;8055;51.930;8.840;2022-10-15T15:07:52;0.75;;;0.75;;
15913;SDS011;8055;51.930;8.840;2022-10-15T15:10:18;2.47;;;1.10;;
15913;SDS011;8055;51.930;8.840;2022-10-15T15:12:46;3.03;;;1.50;;
15913;SDS011;8055;51.930;8.840;2022-10-15T15:15:15;2.28;;;1.20;;
15913;SDS011;8055;51.930;8.840;2022-10-15T15:17:42;2.90;;;0.90;;
15913;SDS011;8055;51.930;8.840;2022-10-15T15:20:09;2.05;;;0.90;;
15913;SDS011;8055;51.930;8.840;2022-10-15T15:22:35;1.95;;;0.50;;
15913;SDS011;8055;51.930;8.840;2022-10-15T15:25:02;2.13;;;0.80;;
15913;SDS011;8055;51.930;8.840;2022-10-15T15:27:34;0.68;;;0.60;;
15913;SDS011;8055;51.930;8.840;2022-10-15T15:30:02;1.00;;;0.80;;
15913;SDS011;8055;51.930;8.840;2022-10-15T15:32:30;1.58;;;0.90;;
15913;SDS011;8055;51.930;8.840;2022-10-15T15:34:55;0.70;;;0.60;;
15913;SDS011;8055;51.930;8.840;2022-10-15T15:37:23;1.42;;;0.50;;
15913;SDS011;8055;51.930;8.840;2022-10-15T15:39:49;1.65;;;0.55;;
15913;SDS011;8055;51.930;8.840;2022-10-15T15:42:18;0.90;;;0.60;;
15913;SDS011;8055;51.930;8.840;2022-10-15T15:44:48;2.58;;;0.60;;
15913;SDS011;8055;51.930;8.840;2022-10-15T15:47:13;0.60;;;0.60;;
15913;SDS011;8055;51.930;8.840;2022-10-15T15:49:39;1.77;;;0.70;;
15913;SDS011;8055;51.930;8.840;2022-10-15T15:52:06;4.50;;;0.65;;
15913;SDS011;8055;51.930;8.840;2022-10-15T15:54:34;0.80;;;0.80;;
15913;SDS011;8055;51.930;8.840;2022-10-15T15:56:59;3.28;;;0.65;;
15913;SDS011;8055;51.930;8.840;2022-10-15T15:59:24;0.90;;;0.73;;
15913;SDS011;8055;51.930;8.840;2022-10-15T16:01:50;2.55;;;1.60;;
15913;SDS011;8055;51.930;8.840;2022-10-15T16:04:15;3.53;;;1.15;;
15913;SDS011;8055;51.930;8.840;2022-10-15T16:06:41;0.57;;;0.57;;
15913;SDS011;8055;51.930;8.840;2022-10-15T16:09:07;2.08;;;0.68;;
15913;SDS011;8055;51.930;8.840;2022-10-15T16:11:32;1.15;;;1.00;;
15913;SDS011;8055;51.930;8.840;2022-10-15T16:13:58;2.47;;;1.02;;
15913;SDS011;8055;51.930;8.840;2022-10-15T16:16:24;1.02;;;0.68;;
15913;SDS011;8055;51.930;8.840;2022-10-15T16:18:50;3.28;;;1.00;;
15913;SDS011;8055;51.930;8.840;2022-10-15T16:21:20;1.58;;;0.52;;
15913;SDS011;8055;51.930;8.840;2022-10-15T16:23:46;0.45;;;0.45;;
15913;SDS011;8055;51.930;8.840;2022-10-15T16:26:12;0.93;;;0.50;;
15913;SDS011;8055;51.930;8.840;2022-10-15T16:28:37;0.40;;;0.40;;
15913;SDS011;8055;51.930;8.840;2022-10-15T16:31:12;0.90;;;0.50;;
15913;SDS011;8055;51.930;8.840;2022-10-15T16:33:53;2.83;;;0.50;;
15913;SDS011;8055;51.930;8.840;2022-10-15T16:36:18;0.60;;;0.60;;
15913;SDS011;8055;51.930;8.840;2022-10-15T16:38:44;1.52;;;0.60;;
15913;SDS011;8055;51.930;8.840;2022-10-15T16:41:11;1.75;;;0.70;;
15913;SDS011;8055;51.930;8.840;2022-10-15T16:43:37;0.60;;;0.60;;
15913;SDS011;8055;51.930;8.840;2022-10-15T16:46:03;1.60;;;0.60;;
15913;SDS011;8055;51.930;8.840;2022-10-15T16:48:29;3.05;;;0.63;;
15913;SDS011;8055;51.930;8.840;2022-10-15T16:53:24;5.68;;;1.88;;
15913;SDS011;8055;51.930;8.840;2022-10-15T16:55:50;3.22;;;1.77;;
15913;SDS011;8055;51.930;8.840;2022-10-15T16:58:15;3.42;;;1.35;;
15913;SDS011;8055;51.930;8.840;2022-10-15T17:00:40;1.52;;;0.95;;
15913;SDS011;8055;51.930;8.840;2022-10-15T17:03:06;1.85;;;1.00;;
15913;SDS011;8055;51.930;8.840;2022-10-15T17:05:31;4.22;;;1.40;;
15913;SDS011;8055;51.930;8.840;2022-10-15T17:07:56;1.48;;;0.77;;
15913;SDS011;8055;51.930;8.840;2022-10-15T17:10:22;2.05;;;0.70;;
15913;SDS011;8055;51.930;8.840;2022-10-15T17:12:50;2.10;;;0.80;;
15913;SDS011;8055;51.930;8.840;2022-10-15T17:15:16;2.13;;;0.60;;
15913;SDS011;8055;51.930;8.840;2022-10-15T17:17:41;4.00;;;1.40;;